sensor_id;sensor_type;location;lat;lon;timestamp;P1;durP1;ratioP1;P2;durP2;ratioP2
34134;SDS011;20410;55.578;12.968;2023-05-10T00:00:33;7.97;;;4.30;;
34134;SDS011;20410;55.578;12.968;2023-05-10T00:02:58;6.47;;;3.87;;
34134;SDS011;20410;55.578;12.968;2023-05-10T00:05:24;6.03;;;4.27;;
34134;SDS011;20410;55.578;12.968;2023-05-10T00:07:50;8.23;;;3.90;;
34134;SDS011;20410;55.578;12.968;2023-05-10T00:10:15;5.53;;;3.80;;
34134;SDS011;20410;55.578;12.968;2023-05-10T00:12:41;8.93;;;4.57;;
34134;SDS011;20410;55.578;12.968;2023-05-10T00:15:08;8.30;;;4.20;;
34134;SDS011;20410;55.578;12.968;2023-05-10T00:17:34;5.70;;;4.07;;
34134;SDS011;20410;55.578;12.968;2023-05-10T00:20:00;7.80;;;3.90;;
34134;SDS011;20410;55.578;12.968;2023-05-10T00:22:25;6.27;;;4.23;;
34134;SDS011;20410;55.578;12.968;2023-05-10T00:24:51;9.47;;;4.77;;
34134;SDS011;20410;55.578;12.968;2023-05-10T00:27:16;7.57;;;4.13;;
34134;SDS011;20410;55.578;12.968;2023-05-10T00:29:42;7.37;;;4.00;;
34134;SDS011;20410;55.578;12.968;2023-05-10T00:32:08;7.20;;;4.47;;
34134;SDS011;20410;55.578;12.968;2023-05-10T00:34:33;7.53;;;4.43;;
34134;SDS011;20410;55.578;12.968;2023-05-10T00:36:59;10.20;;;4.03;;
34134;SDS011;20410;55.578;12.968;2023-05-10T00:39:25;8.37;;;4.47;;
34134;SDS011;20410;55.578;12.968;2023-05-10T00:41:51;5.70;;;4.30;;
34134;SDS011;20410;55.578;12.968;2023-05-10T00:44:17;9.60;;;4.30;;
34134;SDS011;20410;55.578;12.968;2023-05-10T00:46:43;6.73;;;4.10;;
34134;SDS011;20410;55.578;12.968;2023-05-10T00:49:09;6.50;;;4.30;;
34134;SDS011;20410;55.578;12.968;2023-05-10T00:51:36;9.90;;;4.80;;
34134;SDS011;20410;55.578;12.968;2023-05-10T00:54:02;7.40;;;5.17;;
34134;SDS011;20410;55.578;12.968;2023-05-10T00:56:28;6.83;;;4.63;;
34134;SDS011;20410;55.578;12.968;2023-05-10T00:58:54;7.00;;;4.20;;
34134;SDS011;20410;55.578;12.968;2023-05-10T01:01:20;7.13;;;5.17;;
34134;SDS011;20410;55.578;12.968;2023-05-10T01:03:46;6.90;;;4.17;;
34134;SDS011;20410;55.578;12.968;2023-05-10T01:06:12;6.67;;;4.23;;
34134;SDS011;20410;55.578;12.968;2023-05-10T01:08:38;5.07;;;3.93;;
34134;SDS011;20410;55.578;12.968;2023-05-10T01:11:04;7.07;;;4.40;;
34134;SDS011;20410;55.578;12.968;2023-05-10T01:13:33;6.37;;;4.63;;
34134;SDS011;20410;55.578;12.968;2023-05-10T01:16:02;7.10;;;4.53;;
34134;SDS011;20410;55.578;12.968;2023-05-10T01:18:28;5.80;;;4.23;;
34134;SDS011;20410;55.578;12.968;2023-05-10T01:21:04;6.67;;;4.70;;
34134;SDS011;20410;55.578;12.968;2023-05-10T01:29:19;7.57;;;4.13;;
34134;SDS011;20410;55.578;12.968;2023-05-10T01:34:59;8.57;;;3.90;;
34134;SDS011;20410;55.578;12.968;2023-05-10T01:37:39;6.00;;;5.03;;
34134;SDS011;20410;55.578;12.968;2023-05-10T01:40:20;7.83;;;4.77;;
34134;SDS011;20410;55.578;12.968;2023-05-10T01:42:54;8.87;;;3.90;;
34134;SDS011;20410;55.578;12.968;2023-05-10T01:45:41;8.70;;;4.93;;
34134;SDS011;20410;55.578;12.968;2023-05-10T01:48:17;8.43;;;4.23;;
34134;SDS011;20410;55.578;12.968;2023-05-10T01:50:45;7.57;;;4.93;;
34134;SDS011;20410;55.578;12.968;2023-05-10T01:53:12;6.73;;;4.17;;
34134;SDS011;20410;55.578;12.968;2023-05-10T01:55:46;8.53;;;5.03;;
34134;SDS011;20410;55.578;12.968;2023-05-10T01:58:15;6.97;;;5.00;;
34134;SDS011;20410;55.578;12.968;2023-05-10T02:00:46;6.93;;;4.37;;
34134;SDS011;20410;55.578;12.968;2023-05-10T02:03:14;6.17;;;4.40;;
34134;SDS011;20410;55.578;12.968;2023-05-10T02:05:41;7.57;;;4.70;;
34134;SDS011;20410;55.578;12.968;2023-05-10T02:08:10;7.70;;;4.37;;
34134;SDS011;20410;55.578;12.968;2023-05-10T02:10:36;6.10;;;4.43;;
34134;SDS011;20410;55.578;12.968;2023-05-10T02:13:03;6.37;;;4.67;;
34134;SDS011;20410;55.578;12.968;2023-05-10T02:15:31;8.23;;;4.63;;
34134;SDS011;20410;55.578;12.968;2023-05-10T02:17:58;8.37;;;4.73;;
34134;SDS011;20410;55.578;12.968;2023-05-10T02:20:25;7.67;;;4.47;;
34134;SDS011;20410;55.578;12.968;2023-05-10T02:22:52;7.83;;;4.53;;
34134;SDS011;20410;55.578;12.968;2023-05-10T02:25:20;8.03;;;3.97;;
34134;SDS011;20410;55.578;12.968;2023-05-10T02:27:47;6.53;;;5.00;;
34134;SDS011;20410;55.578;12.968;2023-05-10T02:30:14;7.07;;;4.87;;
34134;SDS011;20410;55.578;12.968;2023-05-10T02:32:40;7.87;;;4.67;;
34134;SDS011;20410;55.578;12.968;2023-05-10T02:35:07;8.90;;;4.40;;
34134;SDS011;20410;55.578;12.968;2023-05-10T02:37:35;6.87;;;4.43;;
34134;SDS011;20410;55.578;12.968;2023-05-10T02:40:02;6.33;;;4.80;;
34134;SDS011;20410;55.578;12.968;2023-05-10T02:42:29;7.47;;;4.47;;
34134;SDS011;20410;55.578;12.968;2023-05-10T02:44:59;10.60;;;4.60;;
34134;SDS011;20410;55.578;12.968;2023-05-10T02:47:27;7.33;;;4.70;;
34134;SDS011;20410;55.578;12.968;2023-05-10T02:49:53;8.83;;;4.87;;
34134;SDS011;20410;55.578;12.968;2023-05-10T02:52:21;5.47;;;4.30;;
34134;SDS011;20410;55.578;12.968;2023-05-10T02:54:54;7.43;;;4.67;;
34134;SDS011;20410;55.578;12.968;2023-05-10T02:57:28;7.87;;;4.27;;
34134;SDS011;20410;55.578;12.968;2023-05-10T02:59:59;6.27;;;4.23;;
34134;SDS011;20410;55.578;12.968;2023-05-10T03:02:26;9.53;;;4.90;;
34134;SDS011;20410;55.578;12.968;2023-05-10T03:04:52;6.57;;;4.57;;
34134;SDS011;20410;55.578;12.968;2023-05-10T03:07:17;9.07;;;4.90;;
34134;SDS011;20410;55.578;12.968;2023-05-10T03:09:46;7.60;;;5.17;;
34134;SDS011;20410;55.578;12.968;2023-05-10T03:17:29;6.73;;;4.57;;
34134;SDS011;20410;55.578;12.968;2023-05-10T03:19:58;7.67;;;4.87;;
34134;SDS011;20410;55.578;12.968;2023-05-10T03:22:32;6.97;;;4.27;;
34134;SDS011;20410;55.578;12.968;2023-05-10T03:25:04;9.30;;;4.60;;
34134;SDS011;20410;55.578;12.968;2023-05-10T03:27:31;8.03;;;4.07;;
34134;SDS011;20410;55.578;12.968;2023-05-10T03:29:58;4.80;;;3.90;;
34134;SDS011;20410;55.578;12.968;2023-05-10T03:32:26;6.87;;;4.47;;
34134;SDS011;20410;55.578;12.968;2023-05-10T03:34:54;6.10;;;3.90;;
34134;SDS011;20410;55.578;12.968;2023-05-10T03:37:19;5.17;;;4.30;;
34134;SDS011;20410;55.578;12.968;2023-05-10T03:39:45;5.37;;;3.67;;
34134;SDS011;20410;55.578;12.968;2023-05-10T03:42:11;9.70;;;4.27;;
34134;SDS011;20410;55.578;12.968;2023-05-10T03:44:37;7.87;;;5.17;;
34134;SDS011;20410;55.578;12.968;2023-05-10T03:47:05;6.70;;;4.07;;
34134;SDS011;20410;55.578;12.968;2023-05-10T03:49:31;6.10;;;3.83;;
34134;SDS011;20410;55.578;12.968;2023-05-10T03:51:57;6.17;;;4.30;;
34134;SDS011;20410;55.578;12.968;2023-05-10T03:54:22;6.60;;;4.33;;
34134;SDS011;20410;55.578;12.968;2023-05-10T03:56:48;7.47;;;3.97;;
34134;SDS011;20410;55.578;12.968;2023-05-10T03:59:13;7.17;;;4.30;;
34134;SDS011;20410;55.578;12.968;2023-05-10T04:01:39;7.90;;;4.37;;
34134;SDS011;20410;55.578;12.968;2023-05-10T04:04:05;5.93;;;4.27;;
34134;SDS011;20410;55.578;12.968;2023-05-10T04:06:30;8.67;;;4.70;;
34134;SDS011;20410;55.578;12.968;2023-05-10T04:08:56;7.50;;;4.43;;
34134;SDS011;20410;55.578;12.968;2023-05-10T04:11:24;4.77;;;4.10;;
34134;SDS011;20410;55.578;12.968;2023-05-10T04:13:50;6.20;;;4.40;;
34134;SDS011;20410;55.578;12.968;2023-05-10T04:16:16;9.10;;;4.10;;
34134;SDS011;20410;55.578;12.968;2023-05-10T04:18:41;8.20;;;4.43;;
34134;SDS011;20410;55.578;12.968;2023-05-10T04:21:13;6.63;;;4.23;;
34134;SDS011;20410;55.578;12.968;2023-05-10T04:23:39;8.20;;;4.27;;
34134;SDS011;20410;55.578;12.968;2023-05-10T04:26:05;9.33;;;4.40;;
34134;SDS011;20410;55.578;12.968;2023-05-10T04:28:30;6.27;;;3.97;;
34134;SDS011;20410;55.578;12.968;2023-05-10T04:33:28;5.23;;;4.50;;
34134;SDS011;20410;55.578;12.968;2023-05-10T04:35:54;7.20;;;3.90;;
34134;SDS011;20410;55.578;12.968;2023-05-10T04:38:20;9.47;;;4.87;;
34134;SDS011;20410;55.578;12.968;2023-05-10T04:40:45;7.17;;;4.37;;
34134;SDS011;20410;55.578;12.968;2023-05-10T04:43:11;7.23;;;3.97;;
34134;SDS011;20410;55.578;12.968;2023-05-10T04:45:37;6.83;;;3.97;;
34134;SDS011;20410;55.578;12.968;2023-05-10T04:48:02;8.87;;;4.43;;
34134;SDS011;20410;55.578;12.968;2023-05-10T04:50:28;6.23;;;4.20;;
34134;SDS011;20410;55.578;12.968;2023-05-10T04:52:53;8.83;;;4.70;;
34134;SDS011;20410;55.578;12.968;2023-05-10T04:55:19;5.00;;;4.30;;
34134;SDS011;20410;55.578;12.968;2023-05-10T04:57:44;7.13;;;4.17;;
34134;SDS011;20410;55.578;12.968;2023-05-10T05:00:10;6.97;;;3.87;;
34134;SDS011;20410;55.578;12.968;2023-05-10T05:02:36;5.60;;;4.00;;
34134;SDS011;20410;55.578;12.968;2023-05-10T05:05:02;9.17;;;4.13;;
34134;SDS011;20410;55.578;12.968;2023-05-10T05:07:27;8.37;;;4.20;;
34134;SDS011;20410;55.578;12.968;2023-05-10T05:09:53;6.20;;;4.17;;
34134;SDS011;20410;55.578;12.968;2023-05-10T05:12:19;8.93;;;4.47;;
34134;SDS011;20410;55.578;12.968;2023-05-10T05:14:44;7.00;;;4.23;;
34134;SDS011;20410;55.578;12.968;2023-05-10T05:17:10;7.27;;;4.97;;
34134;SDS011;20410;55.578;12.968;2023-05-10T05:19:35;8.23;;;4.40;;
34134;SDS011;20410;55.578;12.968;2023-05-10T05:22:01;7.00;;;3.80;;
34134;SDS011;20410;55.578;12.968;2023-05-10T05:24:27;8.40;;;4.27;;
34134;SDS011;20410;55.578;12.968;2023-05-10T05:26:52;7.23;;;4.23;;
34134;SDS011;20410;55.578;12.968;2023-05-10T05:29:18;7.67;;;4.40;;
34134;SDS011;20410;55.578;12.968;2023-05-10T05:31:44;4.50;;;3.93;;
34134;SDS011;20410;55.578;12.968;2023-05-10T05:34:09;8.00;;;3.93;;
34134;SDS011;20410;55.578;12.968;2023-05-10T05:36:38;5.67;;;3.87;;
34134;SDS011;20410;55.578;12.968;2023-05-10T05:39:03;8.30;;;4.50;;
34134;SDS011;20410;55.578;12.968;2023-05-10T05:41:29;6.57;;;4.27;;
34134;SDS011;20410;55.578;12.968;2023-05-10T05:43:55;7.97;;;4.20;;
34134;SDS011;20410;55.578;12.968;2023-05-10T05:46:20;7.30;;;4.00;;
34134;SDS011;20410;55.578;12.968;2023-05-10T05:48:46;7.13;;;4.20;;
34134;SDS011;20410;55.578;12.968;2023-05-10T05:51:12;7.20;;;4.33;;
34134;SDS011;20410;55.578;12.968;2023-05-10T05:53:37;7.03;;;4.13;;
34134;SDS011;20410;55.578;12.968;2023-05-10T05:56:03;8.57;;;4.70;;
34134;SDS011;20410;55.578;12.968;2023-05-10T05:58:29;7.23;;;3.90;;
34134;SDS011;20410;55.578;12.968;2023-05-10T06:00:54;6.90;;;3.83;;
34134;SDS011;20410;55.578;12.968;2023-05-10T06:03:20;10.77;;;4.07;;
34134;SDS011;20410;55.578;12.968;2023-05-10T06:05:46;7.77;;;4.00;;
34134;SDS011;20410;55.578;12.968;2023-05-10T06:08:11;6.00;;;3.40;;
34134;SDS011;20410;55.578;12.968;2023-05-10T06:10:37;6.20;;;3.67;;
34134;SDS011;20410;55.578;12.968;2023-05-10T06:13:03;8.73;;;4.27;;
34134;SDS011;20410;55.578;12.968;2023-05-10T06:15:28;5.20;;;4.27;;
34134;SDS011;20410;55.578;12.968;2023-05-10T06:17:54;9.17;;;4.03;;
34134;SDS011;20410;55.578;12.968;2023-05-10T06:20:20;8.13;;;4.33;;
34134;SDS011;20410;55.578;12.968;2023-05-10T06:22:45;6.60;;;4.03;;
34134;SDS011;20410;55.578;12.968;2023-05-10T06:25:11;6.53;;;3.93;;
34134;SDS011;20410;55.578;12.968;2023-05-10T06:27:37;6.20;;;3.93;;
34134;SDS011;20410;55.578;12.968;2023-05-10T06:30:03;8.70;;;4.00;;
34134;SDS011;20410;55.578;12.968;2023-05-10T06:32:29;9.30;;;4.10;;
34134;SDS011;20410;55.578;12.968;2023-05-10T06:34:55;7.70;;;3.93;;
34134;SDS011;20410;55.578;12.968;2023-05-10T06:37:21;6.00;;;3.60;;
34134;SDS011;20410;55.578;12.968;2023-05-10T06:39:46;6.60;;;4.20;;
34134;SDS011;20410;55.578;12.968;2023-05-10T06:42:12;8.53;;;3.97;;
34134;SDS011;20410;55.578;12.968;2023-05-10T06:44:37;7.37;;;4.00;;
34134;SDS011;20410;55.578;12.968;2023-05-10T06:47:03;8.17;;;3.70;;
34134;SDS011;20410;55.578;12.968;2023-05-10T06:49:28;6.70;;;3.70;;
34134;SDS011;20410;55.578;12.968;2023-05-10T06:51:57;6.33;;;4.30;;
34134;SDS011;20410;55.578;12.968;2023-05-10T06:54:23;7.30;;;3.97;;
34134;SDS011;20410;55.578;12.968;2023-05-10T06:56:48;4.97;;;3.60;;
34134;SDS011;20410;55.578;12.968;2023-05-10T06:59:14;6.63;;;4.03;;
34134;SDS011;20410;55.578;12.968;2023-05-10T07:01:41;8.90;;;4.00;;
34134;SDS011;20410;55.578;12.968;2023-05-10T07:04:07;7.80;;;4.37;;
34134;SDS011;20410;55.578;12.968;2023-05-10T07:06:33;5.63;;;3.80;;
34134;SDS011;20410;55.578;12.968;2023-05-10T07:08:59;6.23;;;4.10;;
34134;SDS011;20410;55.578;12.968;2023-05-10T07:11:25;7.33;;;4.00;;
34134;SDS011;20410;55.578;12.968;2023-05-10T07:13:51;8.53;;;3.67;;
34134;SDS011;20410;55.578;12.968;2023-05-10T07:16:17;6.70;;;4.17;;
34134;SDS011;20410;55.578;12.968;2023-05-10T07:18:42;10.13;;;4.30;;
34134;SDS011;20410;55.578;12.968;2023-05-10T07:21:08;7.83;;;4.50;;
34134;SDS011;20410;55.578;12.968;2023-05-10T07:23:33;5.93;;;3.30;;
34134;SDS011;20410;55.578;12.968;2023-05-10T07:25:59;7.53;;;3.57;;
34134;SDS011;20410;55.578;12.968;2023-05-10T07:28:25;5.72;;;4.22;;
34134;SDS011;20410;55.578;12.968;2023-05-10T07:30:50;5.53;;;4.10;;
34134;SDS011;20410;55.578;12.968;2023-05-10T07:33:16;9.50;;;3.60;;
34134;SDS011;20410;55.578;12.968;2023-05-10T07:35:42;4.40;;;3.53;;
34134;SDS011;20410;55.578;12.968;2023-05-10T07:38:08;7.25;;;3.85;;
34134;SDS011;20410;55.578;12.968;2023-05-10T07:40:35;8.07;;;4.00;;
34134;SDS011;20410;55.578;12.968;2023-05-10T07:43:01;6.28;;;3.90;;
34134;SDS011;20410;55.578;12.968;2023-05-10T07:45:27;6.97;;;4.00;;
34134;SDS011;20410;55.578;12.968;2023-05-10T07:47:53;7.38;;;3.72;;
34134;SDS011;20410;55.578;12.968;2023-05-10T07:50:18;6.90;;;3.85;;
34134;SDS011;20410;55.578;12.968;2023-05-10T07:52:44;6.38;;;3.70;;
34134;SDS011;20410;55.578;12.968;2023-05-10T07:55:10;10.00;;;4.28;;
34134;SDS011;20410;55.578;12.968;2023-05-10T07:57:35;8.80;;;3.80;;
34134;SDS011;20410;55.578;12.968;2023-05-10T08:00:01;6.10;;;4.07;;
34134;SDS011;20410;55.578;12.968;2023-05-10T08:02:27;5.85;;;3.80;;
34134;SDS011;20410;55.578;12.968;2023-05-10T08:04:53;7.22;;;4.10;;
34134;SDS011;20410;55.578;12.968;2023-05-10T08:07:20;5.82;;;3.70;;
34134;SDS011;20410;55.578;12.968;2023-05-10T08:09:46;11.02;;;3.92;;
34134;SDS011;20410;55.578;12.968;2023-05-10T08:12:11;6.38;;;3.55;;
34134;SDS011;20410;55.578;12.968;2023-05-10T08:14:37;7.22;;;4.10;;
34134;SDS011;20410;55.578;12.968;2023-05-10T08:17:03;7.32;;;3.85;;
34134;SDS011;20410;55.578;12.968;2023-05-10T08:19:28;6.20;;;3.60;;
34134;SDS011;20410;55.578;12.968;2023-05-10T08:21:54;6.50;;;4.20;;
34134;SDS011;20410;55.578;12.968;2023-05-10T08:24:22;7.60;;;3.72;;
34134;SDS011;20410;55.578;12.968;2023-05-10T08:26:48;8.35;;;3.92;;
34134;SDS011;20410;55.578;12.968;2023-05-10T08:29:14;5.63;;;4.00;;
34134;SDS011;20410;55.578;12.968;2023-05-10T08:31:40;6.60;;;3.78;;
34134;SDS011;20410;55.578;12.968;2023-05-10T08:34:05;6.03;;;3.92;;
34134;SDS011;20410;55.578;12.968;2023-05-10T08:36:31;7.05;;;3.60;;
34134;SDS011;20410;55.578;12.968;2023-05-10T08:38:57;5.95;;;3.72;;
34134;SDS011;20410;55.578;12.968;2023-05-10T08:41:23;7.22;;;3.65;;
34134;SDS011;20410;55.578;12.968;2023-05-10T08:43:51;5.63;;;3.63;;
34134;SDS011;20410;55.578;12.968;2023-05-10T08:46:18;4.85;;;3.30;;
34134;SDS011;20410;55.578;12.968;2023-05-10T08:48:44;7.93;;;3.88;;
34134;SDS011;20410;55.578;12.968;2023-05-10T08:51:14;9.35;;;3.63;;
34134;SDS011;20410;55.578;12.968;2023-05-10T08:53:43;7.70;;;3.60;;
34134;SDS011;20410;55.578;12.968;2023-05-10T08:56:10;9.05;;;3.53;;
34134;SDS011;20410;55.578;12.968;2023-05-10T08:58:36;8.55;;;3.65;;
34134;SDS011;20410;55.578;12.968;2023-05-10T09:01:02;8.65;;;3.45;;
34134;SDS011;20410;55.578;12.968;2023-05-10T09:03:28;7.28;;;3.88;;
34134;SDS011;20410;55.578;12.968;2023-05-10T09:05:55;7.18;;;3.30;;
34134;SDS011;20410;55.578;12.968;2023-05-10T09:08:22;8.25;;;3.35;;
34134;SDS011;20410;55.578;12.968;2023-05-10T09:10:50;6.40;;;3.30;;
34134;SDS011;20410;55.578;12.968;2023-05-10T09:13:16;10.20;;;3.42;;
34134;SDS011;20410;55.578;12.968;2023-05-10T09:15:43;4.78;;;3.40;;
34134;SDS011;20410;55.578;12.968;2023-05-10T09:18:10;6.03;;;3.25;;
34134;SDS011;20410;55.578;12.968;2023-05-10T09:20:36;7.85;;;3.33;;
34134;SDS011;20410;55.578;12.968;2023-05-10T09:23:01;10.02;;;3.25;;
34134;SDS011;20410;55.578;12.968;2023-05-10T09:25:27;6.20;;;3.22;;
34134;SDS011;20410;55.578;12.968;2023-05-10T09:27:53;5.25;;;3.10;;
34134;SDS011;20410;55.578;12.968;2023-05-10T09:30:23;7.53;;;3.38;;
34134;SDS011;20410;55.578;12.968;2023-05-10T09:32:53;5.82;;;3.10;;
34134;SDS011;20410;55.578;12.968;2023-05-10T09:35:21;6.47;;;3.10;;
34134;SDS011;20410;55.578;12.968;2023-05-10T09:37:56;7.15;;;3.25;;
34134;SDS011;20410;55.578;12.968;2023-05-10T09:40:24;5.95;;;3.00;;
34134;SDS011;20410;55.578;12.968;2023-05-10T09:42:56;4.07;;;2.90;;
34134;SDS011;20410;55.578;12.968;2023-05-10T09:45:32;4.57;;;3.10;;
34134;SDS011;20410;55.578;12.968;2023-05-10T09:47:59;5.53;;;3.05;;
34134;SDS011;20410;55.578;12.968;2023-05-10T09:50:26;6.30;;;3.00;;
34134;SDS011;20410;55.578;12.968;2023-05-10T09:52:59;6.20;;;2.95;;
34134;SDS011;20410;55.578;12.968;2023-05-10T09:58:07;5.13;;;2.80;;
34134;SDS011;20410;55.578;12.968;2023-05-10T10:00:37;4.60;;;2.88;;
34134;SDS011;20410;55.578;12.968;2023-05-10T10:03:04;7.05;;;2.97;;
34134;SDS011;20410;55.578;12.968;2023-05-10T10:05:31;4.45;;;3.00;;
34134;SDS011;20410;55.578;12.968;2023-05-10T10:07:58;7.18;;;3.03;;
34134;SDS011;20410;55.578;12.968;2023-05-10T10:10:25;4.47;;;2.78;;
34134;SDS011;20410;55.578;12.968;2023-05-10T10:12:51;5.00;;;2.80;;
34134;SDS011;20410;55.578;12.968;2023-05-10T10:15:18;13.52;;;3.10;;
34134;SDS011;20410;55.578;12.968;2023-05-10T10:17:45;3.85;;;3.17;;
34134;SDS011;20410;55.578;12.968;2023-05-10T10:20:11;7.10;;;3.42;;
34134;SDS011;20410;55.578;12.968;2023-05-10T10:22:37;6.05;;;3.20;;
34134;SDS011;20410;55.578;12.968;2023-05-10T10:25:07;9.93;;;3.53;;
34134;SDS011;20410;55.578;12.968;2023-05-10T10:30:38;7.80;;;3.20;;
34134;SDS011;20410;55.578;12.968;2023-05-10T10:35:57;4.68;;;3.22;;
34134;SDS011;20410;55.578;12.968;2023-05-10T10:38:25;5.35;;;3.25;;
34134;SDS011;20410;55.578;12.968;2023-05-10T10:41:04;7.50;;;3.30;;
34134;SDS011;20410;55.578;12.968;2023-05-10T10:43:35;4.32;;;2.90;;
34134;SDS011;20410;55.578;12.968;2023-05-10T10:46:14;8.48;;;3.30;;
34134;SDS011;20410;55.578;12.968;2023-05-10T10:48:49;5.55;;;3.13;;
34134;SDS011;20410;55.578;12.968;2023-05-10T10:51:36;3.78;;;3.13;;
34134;SDS011;20410;55.578;12.968;2023-05-10T10:54:11;4.75;;;2.85;;
34134;SDS011;20410;55.578;12.968;2023-05-10T10:56:37;8.82;;;3.13;;
34134;SDS011;20410;55.578;12.968;2023-05-10T10:59:03;6.88;;;2.95;;
34134;SDS011;20410;55.578;12.968;2023-05-10T11:01:32;5.93;;;3.38;;
34134;SDS011;20410;55.578;12.968;2023-05-10T11:06:34;4.30;;;2.70;;
34134;SDS011;20410;55.578;12.968;2023-05-10T11:09:06;5.57;;;2.83;;
34134;SDS011;20410;55.578;12.968;2023-05-10T11:11:34;6.38;;;2.70;;
34134;SDS011;20410;55.578;12.968;2023-05-10T11:14:03;5.40;;;3.00;;
34134;SDS011;20410;55.578;12.968;2023-05-10T11:16:40;5.07;;;2.75;;
34134;SDS011;20410;55.578;12.968;2023-05-10T11:19:08;4.35;;;2.95;;
34134;SDS011;20410;55.578;12.968;2023-05-10T11:21:48;5.47;;;2.90;;
34134;SDS011;20410;55.578;12.968;2023-05-10T11:24:38;8.02;;;3.00;;
34134;SDS011;20410;55.578;12.968;2023-05-10T11:27:03;6.88;;;2.53;;
34134;SDS011;20410;55.578;12.968;2023-05-10T11:29:30;7.15;;;3.08;;
34134;SDS011;20410;55.578;12.968;2023-05-10T11:31:59;6.72;;;2.95;;
34134;SDS011;20410;55.578;12.968;2023-05-10T11:34:25;4.63;;;2.60;;
34134;SDS011;20410;55.578;12.968;2023-05-10T11:36:52;6.03;;;2.88;;
34134;SDS011;20410;55.578;12.968;2023-05-10T11:39:20;4.82;;;2.47;;
34134;SDS011;20410;55.578;12.968;2023-05-10T11:41:49;5.25;;;2.72;;
34134;SDS011;20410;55.578;12.968;2023-05-10T11:44:15;5.63;;;2.83;;
34134;SDS011;20410;55.578;12.968;2023-05-10T11:46:40;4.68;;;2.72;;
34134;SDS011;20410;55.578;12.968;2023-05-10T11:49:06;7.68;;;2.83;;
34134;SDS011;20410;55.578;12.968;2023-05-10T11:51:35;5.88;;;2.42;;
34134;SDS011;20410;55.578;12.968;2023-05-10T11:54:01;5.05;;;2.75;;
34134;SDS011;20410;55.578;12.968;2023-05-10T11:56:32;2.95;;;2.40;;
34134;SDS011;20410;55.578;12.968;2023-05-10T11:58:58;4.57;;;2.55;;
34134;SDS011;20410;55.578;12.968;2023-05-10T12:01:26;7.90;;;2.70;;
34134;SDS011;20410;55.578;12.968;2023-05-10T12:03:52;4.82;;;2.65;;
34134;SDS011;20410;55.578;12.968;2023-05-10T12:06:20;6.43;;;2.60;;
34134;SDS011;20410;55.578;12.968;2023-05-10T12:08:47;3.60;;;2.45;;
34134;SDS011;20410;55.578;12.968;2023-05-10T12:11:17;8.07;;;2.72;;
34134;SDS011;20410;55.578;12.968;2023-05-10T12:13:43;6.35;;;2.45;;
34134;SDS011;20410;55.578;12.968;2023-05-10T12:16:45;4.50;;;3.05;;
34134;SDS011;20410;55.578;12.968;2023-05-10T12:19:04;6.53;;;3.00;;
34134;SDS011;20410;55.578;12.968;2023-05-10T12:21:30;4.90;;;2.72;;
34134;SDS011;20410;55.578;12.968;2023-05-10T12:23:59;5.22;;;2.63;;
34134;SDS011;20410;55.578;12.968;2023-05-10T12:26:27;5.00;;;2.88;;
34134;SDS011;20410;55.578;12.968;2023-05-10T12:28:53;5.95;;;2.45;;
34134;SDS011;20410;55.578;12.968;2023-05-10T12:31:19;7.60;;;2.85;;
34134;SDS011;20410;55.578;12.968;2023-05-10T12:33:45;6.78;;;2.72;;
34134;SDS011;20410;55.578;12.968;2023-05-10T12:36:12;5.45;;;2.60;;
34134;SDS011;20410;55.578;12.968;2023-05-10T12:38:40;3.53;;;2.60;;
34134;SDS011;20410;55.578;12.968;2023-05-10T12:41:08;7.70;;;2.90;;
34134;SDS011;20410;55.578;12.968;2023-05-10T12:43:35;6.25;;;3.08;;
34134;SDS011;20410;55.578;12.968;2023-05-10T12:46:08;9.85;;;2.88;;
34134;SDS011;20410;55.578;12.968;2023-05-10T12:48:35;6.93;;;2.60;;
34134;SDS011;20410;55.578;12.968;2023-05-10T12:51:01;5.10;;;2.95;;
34134;SDS011;20410;55.578;12.968;2023-05-10T12:53:28;6.70;;;2.67;;
34134;SDS011;20410;55.578;12.968;2023-05-10T12:55:54;5.40;;;2.53;;
34134;SDS011;20410;55.578;12.968;2023-05-10T12:58:19;4.80;;;2.58;;
34134;SDS011;20410;55.578;12.968;2023-05-10T13:00:45;6.28;;;2.50;;
34134;SDS011;20410;55.578;12.968;2023-05-10T13:03:11;5.25;;;2.53;;
34134;SDS011;20410;55.578;12.968;2023-05-10T13:05:36;3.95;;;2.38;;
34134;SDS011;20410;55.578;12.968;2023-05-10T13:08:03;3.70;;;2.60;;
34134;SDS011;20410;55.578;12.968;2023-05-10T13:10:29;7.22;;;2.90;;
34134;SDS011;20410;55.578;12.968;2023-05-10T13:12:56;5.85;;;2.70;;
34134;SDS011;20410;55.578;12.968;2023-05-10T13:15:22;3.70;;;2.50;;
34134;SDS011;20410;55.578;12.968;2023-05-10T13:17:48;5.20;;;2.53;;
34134;SDS011;20410;55.578;12.968;2023-05-10T13:20:13;8.00;;;2.72;;
34134;SDS011;20410;55.578;12.968;2023-05-10T13:22:39;4.47;;;2.55;;
34134;SDS011;20410;55.578;12.968;2023-05-10T13:25:06;5.50;;;2.40;;
34134;SDS011;20410;55.578;12.968;2023-05-10T13:27:32;5.43;;;2.60;;
34134;SDS011;20410;55.578;12.968;2023-05-10T13:29:57;5.53;;;2.58;;
34134;SDS011;20410;55.578;12.968;2023-05-10T13:32:24;4.57;;;2.60;;
34134;SDS011;20410;55.578;12.968;2023-05-10T13:34:50;4.30;;;2.60;;
34134;SDS011;20410;55.578;12.968;2023-05-10T13:37:16;2.90;;;2.58;;
34134;SDS011;20410;55.578;12.968;2023-05-10T13:39:42;7.28;;;2.38;;
34134;SDS011;20410;55.578;12.968;2023-05-10T13:42:07;5.25;;;2.40;;
34134;SDS011;20410;55.578;12.968;2023-05-10T13:44:33;3.75;;;2.60;;
34134;SDS011;20410;55.578;12.968;2023-05-10T13:46:59;4.35;;;2.30;;
34134;SDS011;20410;55.578;12.968;2023-05-10T13:49:24;5.68;;;2.58;;
34134;SDS011;20410;55.578;12.968;2023-05-10T13:51:51;4.93;;;2.60;;
34134;SDS011;20410;55.578;12.968;2023-05-10T13:54:17;4.75;;;2.50;;
34134;SDS011;20410;55.578;12.968;2023-05-10T13:56:44;4.32;;;2.50;;
34134;SDS011;20410;55.578;12.968;2023-05-10T13:59:12;5.03;;;2.30;;
34134;SDS011;20410;55.578;12.968;2023-05-10T14:01:39;4.00;;;2.53;;
34134;SDS011;20410;55.578;12.968;2023-05-10T14:04:05;5.68;;;2.65;;
34134;SDS011;20410;55.578;12.968;2023-05-10T14:06:35;4.85;;;2.25;;
34134;SDS011;20410;55.578;12.968;2023-05-10T14:09:03;6.38;;;2.20;;
34134;SDS011;20410;55.578;12.968;2023-05-10T14:11:29;3.55;;;2.50;;
34134;SDS011;20410;55.578;12.968;2023-05-10T14:13:54;4.75;;;2.70;;
34134;SDS011;20410;55.578;12.968;2023-05-10T14:16:20;4.13;;;2.00;;
34134;SDS011;20410;55.578;12.968;2023-05-10T14:18:46;4.22;;;2.50;;
34134;SDS011;20410;55.578;12.968;2023-05-10T14:21:12;7.20;;;2.67;;
34134;SDS011;20410;55.578;12.968;2023-05-10T14:23:37;2.88;;;2.20;;
34134;SDS011;20410;55.578;12.968;2023-05-10T14:26:03;4.32;;;2.28;;
34134;SDS011;20410;55.578;12.968;2023-05-10T14:28:29;5.35;;;2.28;;
34134;SDS011;20410;55.578;12.968;2023-05-10T14:30:54;4.30;;;2.33;;
34134;SDS011;20410;55.578;12.968;2023-05-10T14:33:20;3.33;;;2.17;;
34134;SDS011;20410;55.578;12.968;2023-05-10T14:35:46;6.22;;;2.15;;
34134;SDS011;20410;55.578;12.968;2023-05-10T14:38:12;3.47;;;2.20;;
34134;SDS011;20410;55.578;12.968;2023-05-10T14:40:38;4.13;;;2.40;;
34134;SDS011;20410;55.578;12.968;2023-05-10T14:43:03;5.40;;;2.47;;
34134;SDS011;20410;55.578;12.968;2023-05-10T14:45:29;5.50;;;2.30;;
34134;SDS011;20410;55.578;12.968;2023-05-10T14:47:55;6.65;;;2.45;;
34134;SDS011;20410;55.578;12.968;2023-05-10T14:50:20;3.25;;;2.15;;
34134;SDS011;20410;55.578;12.968;2023-05-10T14:52:46;4.97;;;2.15;;
34134;SDS011;20410;55.578;12.968;2023-05-10T14:55:12;4.60;;;2.40;;
34134;SDS011;20410;55.578;12.968;2023-05-10T14:57:37;4.72;;;2.42;;
34134;SDS011;20410;55.578;12.968;2023-05-10T15:00:03;4.05;;;2.35;;